createdAt,value
2018-04-07T00:00:42.126Z,87.10
2018-04-07T00:01:45.400Z,87.40
2018-04-07T00:02:47.883Z,87.30
2018-04-07T00:03:51.130Z,87.80
2018-04-07T00:04:53.632Z,87.70
2018-04-07T00:05:56.128Z,87.60
2018-04-07T00:06:59.399Z,87.70
2018-04-07T00:08:01.892Z,87.70
2018-04-07T00:09:04.371Z,87.60
2018-04-07T00:10:06.851Z,87.70
2018-04-07T00:11:09.346Z,87.60
2018-04-07T00:12:11.857Z,87.40
2018-04-07T00:13:15.096Z,87.60
2018-04-07T00:14:17.588Z,87.60
2018-04-07T00:15:20.084Z,87.50
2018-04-07T00:16:23.330Z,87.70
2018-04-07T00:17:25.837Z,87.60
2018-04-07T00:18:29.076Z,87.50
2018-04-07T00:19:31.569Z,87.50
2018-04-07T00:20:34.868Z,87.30
2018-04-07T00:21:37.355Z,87.30
2018-04-07T00:22:40.630Z,87.10
2018-04-07T00:23:43.106Z,87.00
2018-04-07T00:24:46.358Z,87.20
2018-04-07T00:25:48.862Z,87.10
2018-04-07T00:26:51.345Z,87.40
2018-04-07T00:27:54.628Z,87.10
2018-04-07T00:28:57.902Z,87.10
2018-04-07T00:30:00.409Z,87.10
2018-04-07T00:31:02.903Z,87.30
2018-04-07T00:32:05.397Z,87.60
2018-04-07T00:33:07.913Z,87.30
2018-04-07T00:34:10.422Z,87.30
2018-04-07T00:35:12.906Z,87.40
2018-04-07T00:36:15.393Z,87.30
2018-04-07T00:37:17.892Z,87.40
2018-04-07T00:38:20.421Z,87.20
2018-04-07T00:39:22.915Z,87.00
2018-04-07T00:40:26.169Z,87.00
2018-04-07T00:41:28.699Z,86.90
2018-04-07T00:42:31.179Z,87.10
2018-04-07T00:43:33.688Z,87.10
2018-04-07T00:44:36.183Z,87.20
2018-04-07T00:45:39.444Z,87.50
2018-04-07T00:46:41.930Z,87.00
2018-04-07T00:47:45.182Z,87.30
2018-04-07T00:48:47.677Z,87.20
2018-04-07T00:49:50.166Z,87.30
2018-04-07T00:50:53.422Z,87.70
2018-04-07T00:51:55.909Z,87.70
2018-04-07T00:52:58.402Z,87.60
2018-04-07T00:54:01.694Z,88.00
2018-04-07T00:55:04.954Z,88.30
2018-04-07T00:56:07.446Z,88.30
2018-04-07T00:57:10.712Z,88.40
2018-04-07T00:58:13.218Z,88.40
2018-04-07T00:59:15.701Z,88.50
2018-04-07T01:00:18.186Z,89.40
2018-04-07T01:01:20.667Z,88.90
2018-04-07T01:02:23.160Z,89.00
2018-04-07T01:03:26.419Z,89.20
2018-04-07T01:04:28.921Z,89.20
2018-04-07T01:05:31.409Z,89.60
2018-04-07T01:06:34.652Z,89.60
2018-04-07T01:07:37.138Z,89.60
2018-04-07T01:08:39.638Z,89.70
2018-04-07T01:09:42.896Z,90.00
2018-04-07T01:10:45.382Z,90.00
2018-04-07T01:11:47.867Z,90.00
2018-04-07T01:12:50.356Z,90.00
2018-04-07T01:13:52.855Z,90.00
2018-04-07T01:14:55.338Z,90.00
2018-04-07T01:15:57.828Z,90.10
2018-04-07T01:17:00.320Z,90.10
2018-04-07T01:18:03.581Z,89.80
2018-04-07T01:19:06.066Z,89.80
2018-04-07T01:20:09.336Z,89.90
2018-04-07T01:21:11.822Z,89.70
2018-04-07T01:22:15.070Z,89.80
2018-04-07T01:23:17.562Z,89.80
2018-04-07T01:24:20.811Z,89.60
2018-04-07T01:25:23.317Z,89.70
2018-04-07T01:26:25.794Z,89.90
2018-04-07T01:27:28.278Z,89.80
2018-04-07T01:28:30.762Z,90.00
2018-04-07T01:29:34.003Z,90.10
2018-04-07T01:30:36.500Z,90.10
2018-04-07T01:31:38.990Z,90.20
2018-04-07T01:32:42.249Z,90.20
2018-04-07T01:33:44.733Z,90.20
2018-04-07T01:34:48.006Z,90.40
2018-04-07T01:35:50.836Z,90.40
2018-04-07T01:36:53.327Z,90.60
2018-04-07T01:37:55.815Z,90.70
2018-04-07T01:38:58.302Z,90.80
2018-04-07T01:40:00.787Z,90.90
2018-04-07T01:41:04.075Z,91.20
2018-04-07T01:42:07.335Z,91.30
2018-04-07T01:43:11.329Z,91.30
2018-04-07T01:44:13.807Z,91.30
2018-04-07T01:45:16.284Z,91.30
2018-04-07T01:46:18.784Z,91.40
2018-04-07T01:47:22.055Z,91.60
2018-04-07T01:48:24.541Z,91.20
2018-04-07T01:49:27.781Z,91.00
2018-04-07T01:50:30.295Z,91.00
2018-04-07T01:51:33.588Z,91.20
2018-04-07T01:52:36.836Z,91.00
2018-04-07T01:53:39.331Z,91.00
2018-04-07T01:54:42.587Z,91.20
2018-04-07T01:55:45.070Z,90.90
2018-04-07T01:56:47.573Z,91.10
2018-04-07T01:57:50.835Z,91.00
2018-04-07T01:58:53.317Z,90.90
2018-04-07T01:59:56.566Z,91.10
2018-04-07T02:00:59.041Z,90.90
2018-04-07T02:02:01.544Z,90.80
2018-04-07T02:03:04.820Z,90.90
2018-04-07T02:04:07.304Z,90.90
2018-04-07T02:05:10.567Z,91.00
2018-04-07T02:06:13.048Z,91.00
2018-04-07T02:07:15.554Z,90.90
2018-04-07T02:08:18.067Z,91.00
2018-04-07T02:09:21.403Z,91.10
2018-04-07T02:10:24.651Z,91.10
2018-04-07T02:11:27.133Z,91.10
2018-04-07T02:12:29.627Z,91.00
2018-04-07T02:13:32.892Z,91.00
2018-04-07T02:14:35.375Z,91.00
2018-04-07T02:15:38.622Z,91.00
2018-04-07T02:16:41.100Z,91.00
2018-04-07T02:17:43.618Z,91.10
2018-04-07T02:18:46.891Z,91.10
2018-04-07T02:19:50.177Z,91.10
2018-04-07T02:20:53.438Z,91.30
2018-04-07T02:21:55.917Z,91.00
2018-04-07T02:22:58.423Z,91.10
2018-04-07T02:24:01.759Z,91.10
2018-04-07T02:26:05.180Z,91.20
2018-04-07T02:27:07.695Z,91.30
2018-04-07T02:28:10.214Z,91.30
2018-04-07T02:29:12.692Z,91.30
2018-04-07T02:30:15.179Z,91.40
2018-04-07T02:31:17.647Z,91.40
2018-04-07T02:32:20.890Z,91.50
2018-04-07T02:33:23.381Z,91.40
2018-04-07T02:34:25.876Z,91.60
2018-04-07T02:35:28.383Z,91.40
2018-04-07T02:36:30.856Z,91.30
2018-04-07T02:37:33.344Z,91.40
2018-04-07T02:38:35.836Z,91.40
2018-04-07T02:39:38.319Z,91.40
2018-04-07T02:40:40.809Z,91.50
2018-04-07T02:41:44.050Z,91.40
2018-04-07T02:42:46.532Z,91.40
2018-04-07T02:43:49.030Z,91.40
2018-04-07T02:44:52.296Z,91.40
2018-04-07T02:45:54.783Z,91.40
2018-04-07T02:46:58.027Z,91.60
2018-04-07T02:48:00.509Z,91.60
2018-04-07T02:49:03.000Z,91.50
2018-04-07T02:50:05.491Z,91.60
2018-04-07T02:51:08.744Z,91.80
2018-04-07T02:52:11.263Z,91.80
2018-04-07T02:53:13.751Z,91.90
2018-04-07T02:54:16.242Z,91.90
2018-04-07T02:55:18.727Z,92.00
2018-04-07T02:56:22.728Z,91.90
2018-04-07T02:57:25.237Z,91.90
2018-04-07T02:58:28.492Z,91.90
2018-04-07T02:59:31.006Z,91.90
2018-04-07T03:00:33.497Z,91.90
2018-04-07T03:01:35.978Z,91.90
2018-04-07T03:02:38.474Z,91.90
2018-04-07T03:03:41.005Z,92.00
2018-04-07T03:04:44.244Z,92.00
2018-04-07T03:05:46.734Z,92.00
2018-04-07T03:06:49.224Z,92.00
2018-04-07T03:07:51.718Z,92.10
2018-04-07T03:08:54.239Z,92.10
2018-04-07T03:09:57.486Z,92.10
2018-04-07T03:10:59.972Z,92.10
2018-04-07T03:12:02.470Z,92.00
2018-04-07T03:13:05.708Z,92.00
2018-04-07T03:14:08.205Z,92.00
2018-04-07T03:15:10.692Z,92.10
2018-04-07T03:16:13.949Z,92.10
2018-04-07T03:17:16.443Z,92.10
2018-04-07T03:18:19.756Z,92.10
2018-04-07T03:19:22.261Z,92.10
2018-04-07T03:20:24.742Z,92.10
2018-04-07T03:21:27.261Z,92.10
2018-04-07T03:22:29.750Z,92.00
2018-04-07T03:23:32.266Z,92.10
2018-04-07T03:24:34.764Z,92.20
2018-04-07T03:25:38.015Z,92.50
2018-04-07T03:26:42.030Z,92.10
2018-04-07T03:27:44.514Z,92.10
2018-04-07T03:38:32.027Z,92.30
2018-04-07T03:39:34.526Z,93.30
2018-04-07T03:40:37.774Z,93.20
2018-04-07T03:41:40.294Z,93.30
2018-04-07T03:42:42.790Z,93.40
2018-04-07T03:43:45.268Z,93.30
2018-04-07T03:44:47.769Z,93.40
2018-04-07T03:45:50.262Z,93.50
2018-04-07T03:46:53.506Z,93.60
2018-04-07T03:47:55.994Z,93.60
2018-04-07T03:48:58.470Z,93.60
2018-04-07T03:50:00.964Z,93.60
2018-04-07T03:51:04.232Z,93.70
2018-04-07T03:52:06.710Z,93.70
2018-04-07T03:53:09.985Z,93.70
2018-04-07T03:54:12.514Z,93.60
2018-04-07T03:55:15.007Z,93.90
2018-04-07T03:56:17.493Z,93.70
2018-04-07T03:57:20.753Z,93.70
2018-04-07T03:58:23.242Z,93.70
2018-04-07T03:59:27.227Z,93.80
2018-04-07T04:00:29.736Z,93.80
2018-04-07T04:01:32.985Z,94.10
2018-04-07T04:02:35.491Z,93.80
2018-04-07T04:03:37.989Z,93.80
2018-04-07T04:04:40.488Z,93.90
2018-04-07T04:05:42.978Z,94.00
2018-04-07T04:06:45.464Z,94.10
2018-04-07T04:07:47.946Z,94.20
2018-04-07T04:08:51.215Z,94.40
2018-04-07T04:09:53.700Z,94.40
2018-04-07T04:10:56.941Z,94.50
2018-04-07T04:11:59.424Z,94.50
2018-04-07T04:13:01.914Z,94.70
2018-04-07T04:14:04.422Z,94.70
2018-04-07T04:15:06.900Z,94.80
2018-04-07T04:16:09.377Z,94.80
2018-04-07T04:17:11.983Z,94.90
2018-04-07T04:18:14.516Z,94.90
2018-04-07T04:19:17.022Z,95.10
2018-04-07T04:20:19.512Z,95.10
2018-04-07T04:21:22.783Z,95.50
2018-04-07T04:22:25.270Z,95.10
2018-04-07T04:23:27.777Z,95.20
2018-04-07T04:24:30.282Z,95.20
2018-04-07T04:25:32.799Z,95.20
2018-04-07T04:26:36.049Z,95.20
2018-04-07T04:27:38.542Z,95.20
2018-04-07T04:28:41.042Z,95.30
2018-04-07T04:29:43.526Z,95.30
2018-04-07T04:30:46.027Z,95.30
2018-04-07T04:31:48.514Z,95.20
2018-04-07T04:32:50.991Z,95.20
2018-04-07T04:33:53.498Z,95.10
2018-04-07T04:34:55.999Z,95.40
2018-04-07T04:35:58.478Z,95.10
2018-04-07T04:37:00.974Z,95.30
2018-04-07T04:38:03.463Z,95.40
2018-04-07T04:39:06.730Z,95.40
2018-04-07T04:40:09.213Z,95.30
2018-04-07T04:41:12.738Z,95.40
2018-04-07T04:42:15.223Z,95.10
2018-04-07T04:43:17.713Z,95.20
2018-04-07T04:44:20.207Z,95.20
2018-04-07T04:45:22.699Z,95.20
2018-04-07T04:46:25.188Z,95.00
2018-04-07T04:47:27.670Z,95.00
2018-04-07T04:48:30.926Z,95.00
2018-04-07T04:49:33.427Z,94.90
2018-04-07T04:50:36.689Z,94.90
2018-04-07T04:51:39.194Z,94.80
2018-04-07T04:52:42.451Z,94.70
2018-04-07T04:53:44.937Z,94.70
2018-04-07T04:54:48.188Z,94.60
2018-04-07T04:55:50.698Z,94.60
2018-04-07T04:56:53.942Z,94.60
2018-04-07T04:57:56.423Z,94.60
2018-04-07T04:58:58.917Z,94.50
2018-04-07T05:00:01.408Z,94.50
2018-04-07T05:01:03.919Z,94.90
2018-04-07T05:02:06.408Z,94.60
2018-04-07T05:03:08.893Z,94.60
2018-04-07T05:04:12.315Z,94.50
2018-04-07T05:05:14.808Z,94.50
2018-04-07T05:06:17.314Z,94.50
2018-04-07T05:07:20.591Z,94.60
2018-04-07T05:08:23.086Z,94.50
2018-04-07T05:09:25.591Z,94.40
2018-04-07T05:10:28.076Z,94.40
2018-04-07T05:11:30.570Z,94.40
2018-04-07T05:12:33.081Z,94.30
2018-04-07T05:13:36.333Z,94.30
2018-04-07T05:14:38.831Z,94.30
2018-04-07T05:15:42.093Z,94.10
2018-04-07T05:16:44.616Z,94.00
2018-04-07T05:17:47.117Z,94.00
2018-04-07T05:18:49.608Z,93.70
2018-04-07T05:19:52.135Z,93.40
2018-04-07T05:20:54.633Z,93.20
2018-04-07T05:21:57.140Z,92.90
2018-04-07T05:23:00.396Z,92.20
2018-04-07T05:24:02.889Z,92.20
2018-04-07T05:25:05.362Z,91.80
2018-04-07T05:26:07.850Z,91.70
2018-04-07T05:27:11.264Z,91.10
2018-04-07T05:28:13.749Z,91.10
2018-04-07T05:29:16.229Z,90.70
2018-04-07T05:30:18.713Z,90.50
2018-04-07T05:31:21.206Z,90.30
2018-04-07T05:32:23.693Z,90.10
2018-04-07T05:33:26.173Z,89.60
2018-04-07T05:34:28.663Z,89.30
2018-04-07T05:35:31.149Z,89.10
2018-04-07T05:36:33.641Z,88.90
2018-04-07T05:37:37.637Z,88.00
2018-04-07T05:38:40.167Z,87.20
2018-04-07T05:39:42.641Z,85.80
2018-04-07T05:40:45.136Z,85.40
2018-04-07T05:41:47.625Z,84.50
2018-04-07T05:42:50.117Z,83.60
2018-04-07T05:43:53.372Z,81.10
2018-04-07T05:44:55.864Z,81.10
2018-04-07T05:45:59.128Z,78.50
2018-04-07T05:47:01.623Z,78.40
2018-04-07T05:48:04.132Z,78.40
2018-04-07T05:49:06.614Z,77.50
2018-04-07T05:50:09.304Z,75.00
2018-04-07T05:51:12.076Z,74.50
2018-04-07T05:52:14.594Z,73.70
2018-04-07T05:53:17.865Z,73.00
2018-04-07T05:54:20.381Z,72.90
2018-04-07T05:55:22.873Z,72.70
2018-04-07T05:56:25.375Z,70.70
2018-04-07T05:57:28.626Z,70.70
2018-04-07T05:58:31.116Z,70.80
2018-04-07T05:59:34.382Z,69.20
2018-04-07T06:00:36.883Z,69.10
2018-04-07T06:01:39.375Z,68.70
2018-04-07T06:02:42.637Z,67.90
2018-04-07T06:03:45.149Z,67.90
2018-04-07T06:04:47.724Z,66.70
2018-04-07T06:05:50.223Z,66.70
2018-04-07T06:06:52.723Z,66.80
2018-04-07T06:07:55.211Z,66.10
2018-04-07T06:08:58.494Z,64.70
2018-04-07T06:10:03.187Z,64.10
2018-04-07T06:11:05.738Z,63.20
2018-04-07T06:12:08.256Z,61.90
2018-04-07T06:13:10.863Z,60.20
2018-04-07T06:14:13.370Z,58.80
2018-04-07T06:15:15.865Z,58.50
2018-04-07T06:16:18.372Z,58.60
2018-04-07T06:17:20.871Z,58.50
2018-04-07T06:18:23.399Z,58.50
2018-04-07T06:19:26.673Z,58.00
2018-04-07T06:20:29.941Z,56.90
2018-04-07T06:21:32.456Z,56.80
2018-04-07T06:22:34.950Z,54.90
2018-04-07T06:23:37.430Z,54.70
2018-04-07T06:24:39.973Z,53.60
2018-04-07T06:25:42.463Z,53.00
2018-04-07T06:26:44.972Z,52.60
2018-04-07T06:27:47.488Z,52.40
2018-04-07T06:28:50.002Z,51.90
2018-04-07T06:29:52.512Z,50.70
2018-04-07T06:30:55.045Z,50.60
2018-04-07T06:31:57.542Z,50.40
2018-04-07T06:33:00.790Z,49.20
2018-04-07T06:34:03.303Z,49.20
2018-04-07T06:35:06.818Z,47.70
2018-04-07T06:36:09.362Z,47.60
2018-04-07T06:37:12.680Z,46.80
2018-04-07T06:38:15.196Z,46.70
2018-04-07T06:39:17.719Z,47.00
2018-04-07T06:40:20.237Z,46.20
2018-04-07T06:41:22.741Z,46.40
2018-04-07T06:42:25.236Z,46.70
2018-04-07T06:43:27.747Z,46.20
2018-04-07T06:44:30.232Z,46.10
2018-04-07T06:45:32.748Z,46.20
2018-04-07T06:46:35.243Z,46.50
2018-04-07T06:47:37.751Z,46.70
2018-04-07T06:48:40.255Z,47.20
2018-04-07T06:49:42.764Z,47.20
2018-04-07T06:50:45.282Z,47.10
2018-04-07T06:51:47.792Z,47.00
2018-04-07T06:52:50.324Z,46.80
2018-04-07T06:53:52.818Z,46.80
2018-04-07T06:54:55.301Z,47.20
2018-04-07T06:55:57.815Z,46.90
2018-04-07T06:57:01.095Z,45.40
2018-04-07T06:58:03.575Z,45.40
2018-04-07T06:59:06.841Z,44.70
2018-04-07T07:00:09.349Z,44.70
2018-04-07T07:01:12.051Z,44.50
2018-04-07T07:02:14.539Z,44.20
2018-04-07T07:03:17.026Z,44.10
2018-04-07T07:04:19.533Z,44.40
2018-04-07T07:05:22.107Z,44.50
2018-04-07T07:06:24.652Z,44.30
2018-04-07T07:07:27.258Z,44.00
2018-04-07T07:08:29.773Z,43.80
2018-04-07T07:09:32.301Z,43.40
2018-04-07T07:10:34.796Z,42.70
2018-04-07T07:11:37.293Z,43.00
2018-04-07T07:12:39.790Z,43.10
2018-04-07T07:13:43.068Z,43.50
2018-04-07T07:14:46.341Z,43.70
2018-04-07T07:15:48.832Z,43.60
2018-04-07T07:16:52.140Z,45.80
2018-04-07T07:17:54.636Z,45.00
2018-04-07T07:18:57.123Z,45.60
2018-04-07T07:19:59.609Z,45.90
2018-04-07T07:21:02.129Z,45.70
2018-04-07T07:22:04.642Z,45.90
2018-04-07T07:23:07.134Z,46.30
2018-04-07T07:24:09.726Z,46.10
2018-04-07T07:25:12.514Z,46.20
2018-04-07T07:26:15.052Z,46.60
2018-04-07T07:27:17.585Z,46.50
2018-04-07T07:28:20.082Z,45.90
2018-04-07T07:29:22.580Z,45.60
2018-04-07T07:30:25.112Z,45.70
2018-04-07T07:31:27.606Z,45.90
2018-04-07T07:32:30.114Z,45.90
2018-04-07T07:33:32.631Z,46.50
2018-04-07T07:34:35.132Z,46.10
2018-04-07T07:35:38.422Z,45.80
2018-04-07T07:36:41.719Z,45.70
2018-04-07T07:37:44.243Z,45.60
2018-04-07T07:38:46.772Z,45.40
2018-04-07T07:39:49.267Z,45.40
2018-04-07T07:40:51.775Z,45.70
2018-04-07T07:41:54.273Z,45.80
2018-04-07T07:42:57.554Z,45.50
2018-04-07T07:44:00.843Z,44.70
2018-04-07T07:45:04.158Z,44.40
2018-04-07T07:46:06.646Z,44.40
2018-04-07T07:47:09.190Z,44.00
2018-04-07T07:48:11.866Z,44.40
2018-04-07T07:49:14.371Z,44.40
2018-04-07T07:50:16.865Z,44.50
2018-04-07T07:51:20.165Z,44.40
2018-04-07T07:52:23.465Z,43.50
2018-04-07T07:53:26.748Z,44.70
2018-04-07T07:54:30.038Z,44.20
2018-04-07T07:55:32.549Z,44.20
2018-04-07T07:56:35.087Z,44.20
2018-04-07T07:57:37.592Z,44.20
2018-04-07T07:58:40.116Z,44.20
2018-04-07T07:59:43.382Z,45.40
2018-04-07T08:00:45.898Z,45.30
2018-04-07T08:01:48.408Z,45.60
2018-04-07T08:02:50.934Z,45.30
2018-04-07T08:03:53.471Z,44.90
2018-04-07T08:04:55.970Z,44.80
2018-04-07T08:05:58.498Z,44.70
2018-04-07T08:07:01.023Z,44.50
2018-04-07T08:08:03.529Z,44.60
2018-04-07T08:09:06.070Z,44.10
2018-04-07T08:10:08.568Z,42.80
2018-04-07T08:11:11.179Z,42.60
2018-04-07T08:12:14.460Z,42.40
2018-04-07T08:13:16.978Z,42.30
2018-04-07T08:14:19.505Z,42.10
2018-04-07T08:15:22.021Z,41.60
2018-04-07T08:16:24.515Z,41.50
2018-04-07T08:17:27.051Z,41.10
2018-04-07T08:18:29.568Z,40.30
2018-04-07T08:19:32.854Z,39.60
2018-04-07T08:20:35.487Z,39.60
2018-04-07T08:21:37.978Z,40.60
2018-04-07T08:22:40.475Z,40.70
2018-04-07T08:23:43.197Z,41.00
2018-04-07T08:24:45.701Z,41.60
2018-04-07T08:25:48.226Z,41.00
2018-04-07T08:26:51.512Z,41.20
2018-04-07T08:27:54.775Z,41.70
2018-04-07T08:28:57.267Z,41.70
2018-04-07T08:30:00.569Z,43.00
2018-04-07T08:31:03.113Z,42.80
2018-04-07T08:32:06.427Z,43.20
2018-04-07T08:33:08.899Z,43.10
2018-04-07T08:34:11.551Z,43.30
2018-04-07T08:35:14.873Z,43.00
2018-04-07T08:36:17.404Z,43.00
2018-04-07T08:37:19.964Z,42.90
2018-04-07T08:38:22.478Z,42.80
2018-04-07T08:39:25.055Z,42.70
2018-04-07T08:40:27.520Z,42.20
2018-04-07T08:41:30.020Z,43.10
2018-04-07T08:42:32.531Z,43.20
2018-04-07T08:43:35.039Z,43.30
2018-04-07T08:44:37.539Z,44.40
2018-04-07T08:45:40.038Z,43.40
2018-04-07T08:46:43.324Z,43.70
2018-04-07T08:47:45.814Z,43.60
2018-04-07T08:48:49.148Z,42.70
2018-04-07T08:49:51.639Z,42.60
2018-04-07T08:50:54.149Z,42.90
2018-04-07T08:51:56.654Z,42.80
2018-04-07T08:52:59.162Z,42.20
2018-04-07T08:54:01.687Z,41.30
2018-04-07T08:55:04.205Z,42.20
2018-04-07T08:56:06.711Z,41.40
2018-04-07T08:57:09.226Z,41.70
2018-04-07T08:58:11.765Z,42.00
2018-04-07T08:59:14.278Z,42.10
2018-04-07T09:00:16.807Z,41.60
2018-04-07T09:01:19.328Z,41.20
2018-04-07T09:02:21.883Z,40.40
2018-04-07T09:03:24.399Z,40.00
2018-04-07T09:04:26.905Z,40.80
2018-04-07T09:05:29.426Z,41.50
2018-04-07T09:06:32.712Z,41.80
2018-04-07T09:07:35.989Z,42.00
2018-04-07T09:08:38.524Z,42.00
2018-04-07T09:09:41.032Z,42.30
2018-04-07T09:10:43.537Z,42.50
2018-04-07T09:11:46.022Z,41.90
2018-04-07T09:12:48.542Z,42.10
2018-04-07T09:13:51.033Z,42.60
2018-04-07T09:14:54.306Z,42.00
2018-04-07T09:15:57.587Z,41.90
2018-04-07T09:17:00.117Z,41.90
2018-04-07T09:18:02.643Z,41.60
2018-04-07T09:19:05.915Z,41.80
2018-04-07T09:20:08.446Z,41.80
2018-04-07T09:21:10.968Z,42.90
2018-04-07T09:22:14.287Z,42.60
2018-04-07T09:23:16.857Z,42.60
2018-04-07T09:24:19.379Z,42.50
2018-04-07T09:25:21.896Z,42.20
2018-04-07T09:26:24.420Z,42.20
2018-04-07T09:27:26.950Z,42.70
2018-04-07T09:28:29.446Z,42.60
2018-04-07T09:29:31.930Z,42.10
2018-04-07T09:30:34.441Z,41.80
2018-04-07T09:31:36.949Z,41.70
2018-04-07T09:32:39.472Z,42.80
2018-04-07T09:33:41.987Z,42.30
2018-04-07T09:34:44.495Z,42.20
2018-04-07T09:35:47.008Z,41.50
2018-04-07T09:36:49.510Z,41.10
2018-04-07T09:37:52.038Z,42.20
2018-04-07T09:38:54.577Z,42.50
2018-04-07T09:39:57.856Z,43.50
2018-04-07T09:41:00.365Z,43.40
2018-04-07T09:42:02.898Z,43.90
2018-04-07T09:43:05.399Z,43.00
2018-04-07T09:44:07.931Z,42.90
2018-04-07T09:45:10.682Z,42.60
2018-04-07T09:46:13.268Z,42.80
2018-04-07T09:47:15.902Z,43.20
2018-04-07T09:48:18.411Z,43.30
2018-04-07T09:49:20.938Z,43.00
2018-04-07T09:50:23.434Z,42.30
2018-04-07T09:51:25.943Z,42.70
2018-04-07T09:52:28.550Z,43.20
2018-04-07T09:53:31.076Z,43.70
2018-04-07T09:54:33.577Z,44.40
2018-04-07T09:55:36.828Z,44.30
2018-04-07T09:56:39.330Z,44.20
2018-04-07T09:57:42.592Z,44.30
2018-04-07T09:58:45.111Z,44.20
2018-04-07T09:59:47.625Z,44.10
2018-04-07T10:00:50.147Z,44.40
2018-04-07T10:01:52.659Z,45.00
2018-04-07T10:03:01.066Z,45.40
2018-04-07T10:04:03.606Z,45.00
2018-04-07T10:05:06.115Z,44.60
2018-04-07T10:06:08.623Z,45.00
2018-04-07T10:07:11.960Z,45.10
2018-04-07T10:08:14.449Z,45.00
2018-04-07T10:09:16.977Z,44.90
2018-04-07T10:10:19.485Z,45.10
2018-04-07T10:11:21.980Z,45.70
2018-04-07T10:12:25.252Z,46.10
2018-04-07T10:13:27.787Z,46.10
2018-04-07T10:14:30.314Z,46.00
2018-04-07T10:15:32.835Z,46.30
2018-04-07T10:16:35.339Z,45.70
2018-04-07T10:17:37.844Z,45.90
2018-04-07T10:18:41.150Z,44.70
2018-04-07T10:19:43.670Z,44.60
2018-04-07T10:20:46.166Z,44.20
2018-04-07T10:21:49.431Z,43.70
2018-04-07T10:22:51.926Z,43.70
2018-04-07T10:23:55.242Z,44.40
2018-04-07T10:24:57.769Z,44.30
2018-04-07T10:26:00.262Z,44.20
2018-04-07T10:27:02.771Z,43.70
2018-04-07T10:28:05.289Z,44.10
2018-04-07T10:29:08.555Z,43.00
2018-04-07T10:30:11.186Z,43.00
2018-04-07T10:31:13.781Z,43.20
2018-04-07T10:32:16.423Z,43.40
2018-04-07T10:33:18.926Z,43.70
2018-04-07T10:34:21.436Z,44.30
2018-04-07T10:35:24.703Z,44.40
2018-04-07T10:36:28.021Z,44.60
2018-04-07T10:37:31.290Z,45.10
2018-04-07T10:38:33.830Z,45.10
2018-04-07T10:39:36.318Z,46.30
2018-04-07T10:40:38.839Z,45.40
2018-04-07T10:41:41.365Z,45.40
2018-04-07T10:42:43.859Z,45.70
2018-04-07T10:43:47.120Z,45.00
2018-04-07T10:44:49.631Z,45.00
2018-04-07T10:45:52.145Z,44.90
2018-04-07T10:46:54.661Z,45.40
2018-04-07T10:47:57.934Z,45.50
2018-04-07T10:49:01.205Z,44.50
2018-04-07T10:50:03.733Z,44.60
2018-04-07T10:51:06.291Z,44.50
2018-04-07T10:52:08.786Z,44.90
2018-04-07T10:53:11.439Z,45.00
2018-04-07T10:54:13.981Z,45.40
2018-04-07T10:55:17.300Z,45.90
2018-04-07T10:56:19.818Z,45.80
2018-04-07T10:57:22.330Z,45.50
2018-04-07T10:58:24.827Z,45.20
2018-04-07T10:59:27.323Z,44.40
2018-04-07T11:00:29.822Z,45.00
2018-04-07T11:01:33.083Z,44.20
2018-04-07T11:02:35.663Z,44.20
2018-04-07T11:03:38.171Z,44.60
2018-04-07T11:04:40.670Z,44.10
2018-04-07T11:05:43.163Z,44.30
2018-04-07T11:06:45.673Z,43.90
2018-04-07T11:07:48.957Z,43.90
2018-04-07T11:08:52.222Z,44.00
2018-04-07T11:09:54.734Z,44.00
2018-04-07T11:10:57.261Z,44.50
2018-04-07T11:11:59.778Z,44.40
2018-04-07T11:13:02.312Z,44.20
2018-04-07T11:14:05.620Z,43.70
2018-04-07T11:15:08.881Z,43.40
2018-04-07T11:16:11.503Z,43.40
2018-04-07T11:17:14.100Z,42.90
2018-04-07T11:18:16.624Z,43.60
2018-04-07T11:19:19.882Z,43.70
2018-04-07T11:20:22.382Z,43.60
2018-04-07T11:21:25.699Z,43.10
2018-04-07T11:22:28.261Z,43.00
2018-04-07T11:23:30.764Z,41.80
2018-04-07T11:24:33.403Z,42.30
2018-04-07T11:25:35.919Z,41.90
2018-04-07T11:26:38.412Z,41.50
2018-04-07T11:27:41.682Z,42.20
2018-04-07T11:28:44.202Z,41.90
2018-04-07T11:29:46.700Z,41.70
2018-04-07T11:30:49.205Z,41.70
2018-04-07T11:31:51.708Z,40.90
2018-04-07T11:32:54.247Z,41.20
2018-04-07T11:33:56.753Z,41.40
2018-04-07T11:34:59.249Z,41.60
2018-04-07T11:36:01.785Z,40.80
2018-04-07T11:37:05.049Z,42.30
2018-04-07T11:38:07.554Z,42.20
2018-04-07T11:39:10.277Z,42.60
2018-04-07T11:40:12.866Z,43.00
2018-04-07T11:41:15.376Z,42.20
2018-04-07T11:42:17.884Z,42.30
2018-04-07T11:43:20.616Z,42.40
2018-04-07T11:44:23.133Z,42.80
2018-04-07T11:45:25.635Z,43.40
2018-04-07T11:46:28.956Z,43.40
2018-04-07T11:47:31.490Z,43.00
2018-04-07T11:48:34.022Z,41.80
2018-04-07T11:49:36.534Z,40.80
2018-04-07T11:50:39.797Z,40.80
2018-04-07T11:51:42.310Z,40.00
2018-04-07T11:52:46.496Z,40.30
2018-04-07T11:53:49.036Z,40.20
2018-04-07T11:54:51.550Z,40.70
2018-04-07T11:55:54.849Z,42.50
2018-04-07T11:56:57.363Z,42.40
2018-04-07T11:57:59.896Z,43.80
2018-04-07T11:59:03.211Z,41.30
2018-04-07T12:00:06.479Z,40.80
2018-04-07T12:01:08.985Z,40.80
2018-04-07T12:02:11.648Z,40.60
2018-04-07T12:03:14.161Z,40.50
2018-04-07T12:04:16.706Z,41.20
2018-04-07T12:05:19.234Z,42.20
2018-04-07T12:06:21.774Z,40.60
2018-04-07T12:07:25.038Z,42.90
2018-04-07T12:08:27.558Z,42.30
2018-04-07T12:09:30.109Z,42.00
2018-04-07T12:10:33.395Z,42.00
2018-04-07T12:11:36.698Z,42.40
2018-04-07T12:12:39.988Z,41.60
2018-04-07T12:13:43.245Z,41.30
2018-04-07T12:14:45.759Z,41.30
2018-04-07T12:15:48.317Z,40.20
2018-04-07T12:16:50.806Z,39.80
2018-04-07T12:17:53.354Z,40.40
2018-04-07T12:18:56.635Z,40.90
2018-04-07T12:19:59.155Z,40.90
2018-04-07T12:21:01.712Z,40.80
2018-04-07T12:22:04.232Z,39.10
2018-04-07T12:23:07.502Z,39.90
2018-04-07T12:24:10.028Z,39.90
2018-04-07T12:25:12.689Z,41.90
2018-04-07T12:26:15.976Z,41.00
2018-04-07T12:27:19.266Z,39.80
2018-04-07T12:28:22.546Z,38.40
2018-04-07T12:29:25.821Z,38.70
2018-04-07T12:30:28.342Z,38.70
2018-04-07T12:31:30.863Z,38.10
2018-04-07T12:32:33.416Z,37.30
2018-04-07T12:33:35.910Z,38.40
2018-04-07T12:34:38.420Z,37.70
2018-04-07T12:35:40.966Z,37.80
2018-04-07T12:36:44.235Z,38.30
2018-04-07T12:37:46.718Z,38.40
2018-04-07T12:38:49.236Z,37.40
2018-04-07T12:39:51.760Z,37.50
2018-04-07T12:40:54.299Z,36.90
2018-04-07T12:41:56.804Z,37.40
2018-04-07T12:42:59.335Z,37.30
2018-04-07T12:44:01.845Z,37.50
2018-04-07T12:45:04.375Z,37.00
2018-04-07T12:46:06.884Z,36.10
2018-04-07T12:47:09.416Z,35.80
2018-04-07T12:48:12.053Z,35.50
2018-04-07T12:49:15.330Z,36.20
2018-04-07T12:50:18.599Z,35.60
2018-04-07T12:51:21.130Z,35.60
2018-04-07T12:52:23.653Z,35.20
2018-04-07T12:53:26.939Z,36.00
2018-04-07T12:54:30.320Z,35.90
2018-04-07T12:55:33.649Z,35.20
2018-04-07T12:56:36.175Z,35.20
2018-04-07T12:57:38.696Z,36.10
2018-04-07T12:58:41.208Z,34.70
2018-04-07T12:59:43.732Z,36.10
2018-04-07T13:00:46.247Z,36.60
2018-04-07T13:01:48.747Z,37.10
2018-04-07T13:02:52.010Z,35.10
2018-04-07T13:03:54.520Z,35.20
2018-04-07T13:04:57.779Z,34.60
2018-04-07T13:06:00.289Z,34.60
2018-04-07T13:07:02.845Z,34.30
2018-04-07T13:08:06.119Z,34.70
2018-04-07T13:09:08.798Z,34.70
2018-04-07T13:10:12.334Z,35.80
2018-04-07T13:11:14.839Z,35.80
2018-04-07T13:12:18.136Z,35.90
2018-04-07T13:13:20.659Z,35.90
2018-04-07T13:14:23.168Z,36.20
2018-04-07T13:15:25.653Z,35.70
2018-04-07T13:16:28.184Z,35.00
2018-04-07T13:17:30.696Z,34.90
2018-04-07T13:18:33.995Z,35.80
2018-04-07T13:19:37.278Z,34.40
2018-04-07T13:20:39.792Z,34.40
2018-04-07T13:21:42.306Z,34.30
2018-04-07T13:22:44.827Z,35.10
2018-04-07T13:23:47.335Z,35.20
2018-04-07T13:24:49.846Z,35.30
2018-04-07T13:25:53.115Z,35.40
2018-04-07T13:26:55.632Z,35.40
2018-04-07T13:27:58.140Z,36.80
2018-04-07T13:29:00.662Z,35.90
2018-04-07T13:30:03.180Z,35.10
2018-04-07T13:31:05.687Z,34.00
2018-04-07T13:32:08.949Z,33.90
2018-04-07T13:33:11.477Z,33.80
2018-04-07T13:34:14.097Z,35.20
2018-04-07T13:35:16.586Z,35.60
2018-04-07T13:36:19.874Z,34.50
2018-04-07T13:37:22.373Z,34.40
2018-04-07T13:38:24.900Z,33.60